createdAt,value
2018-11-07T04:06:43.241Z,0.00
2018-11-07T04:07:43.158Z,0.67
2018-11-07T04:08:43.118Z,0.48
2018-11-07T04:09:43.072Z,1.33
2018-11-07T04:10:43.026Z,2.86
2018-11-07T04:11:42.984Z,3.23
2018-11-07T04:12:51.603Z,3.42
2018-11-07T04:14:47.361Z,1.43
2018-11-07T04:15:47.283Z,1.33
2018-11-07T04:16:47.235Z,2.00
2018-11-07T04:17:47.195Z,2.00
2018-11-07T04:18:47.160Z,1.90
2018-11-07T04:19:47.113Z,2.09
2018-11-07T04:20:47.081Z,2.47
2018-11-07T04:21:47.036Z,3.14
2018-11-07T04:22:46.997Z,3.81
2018-11-07T04:23:46.958Z,4.57
2018-11-07T04:24:46.912Z,4.57
2018-11-07T04:25:46.879Z,4.38
2018-11-07T04:26:46.836Z,3.90
2018-11-07T04:27:46.798Z,3.52
2018-11-07T04:28:46.752Z,1.81
2018-11-07T04:29:46.715Z,1.14
2018-11-07T04:30:46.676Z,1.14
2018-11-07T04:31:46.633Z,1.23
2018-11-07T04:32:46.599Z,0.48
2018-11-07T04:33:46.558Z,0.00
2018-11-07T04:34:46.527Z,0.00
2018-11-07T04:35:46.481Z,0.28
2018-11-07T04:36:46.436Z,0.19
2018-11-07T04:37:46.398Z,0.19
2018-11-07T04:38:46.360Z,0.57
2018-11-07T04:39:46.317Z,0.28
2018-11-07T04:40:46.282Z,0.76
2018-11-07T04:41:46.245Z,0.48
2018-11-07T04:42:46.200Z,0.85
2018-11-07T04:43:46.160Z,0.95
2018-11-07T04:44:46.125Z,1.04
2018-11-07T04:45:46.084Z,0.85
2018-11-07T04:46:46.046Z,0.85
2018-11-07T04:47:46.008Z,1.14
2018-11-07T04:48:45.962Z,1.14
2018-11-07T04:49:45.925Z,1.23
2018-11-07T04:50:45.886Z,1.23
2018-11-07T04:51:45.845Z,0.95
2018-11-07T04:52:45.811Z,1.14
2018-11-07T04:53:45.770Z,1.14
2018-11-07T04:54:45.730Z,0.48
2018-11-07T04:55:45.693Z,0.85
2018-11-07T04:56:45.647Z,0.00
2018-11-07T04:57:45.627Z,0.00
2018-11-07T04:58:45.579Z,0.00
2018-11-07T04:59:45.537Z,0.00
2018-11-07T05:00:45.491Z,0.00
2018-11-07T05:01:45.454Z,0.00
2018-11-07T05:02:45.416Z,0.00
2018-11-07T05:03:45.374Z,0.00
2018-11-07T05:04:45.343Z,0.00
2018-11-07T05:05:45.300Z,0.00
2018-11-07T05:06:45.266Z,0.00
2018-11-07T05:07:45.265Z,0.00
2018-11-07T05:08:45.276Z,0.00
2018-11-07T05:09:45.142Z,0.00
2018-11-07T05:10:45.102Z,0.00
2018-11-07T05:11:45.060Z,0.00
2018-11-07T05:12:45.075Z,0.00
2018-11-07T05:13:44.987Z,0.00
2018-11-07T05:14:44.944Z,0.00
2018-11-07T05:15:44.904Z,0.00
2018-11-07T05:16:44.869Z,0.00
2018-11-07T05:17:44.835Z,0.00
2018-11-07T05:18:44.788Z,0.00
2018-11-07T05:19:44.769Z,0.00
2018-11-07T05:20:44.709Z,0.00
2018-11-07T05:21:44.670Z,0.00
2018-11-07T05:22:44.632Z,0.00
2018-11-07T05:23:44.588Z,0.19
2018-11-07T05:24:44.557Z,1.14
2018-11-07T05:25:44.514Z,2.19
2018-11-07T05:26:44.478Z,3.61
2018-11-07T05:27:44.437Z,4.19
2018-11-07T05:28:44.391Z,4.47
2018-11-07T05:29:44.356Z,4.66
2018-11-07T05:30:44.326Z,5.71
2018-11-07T05:31:44.340Z,5.52
2018-11-07T05:32:44.238Z,6.28
2018-11-07T05:33:44.207Z,6.47
2018-11-07T05:34:44.159Z,5.99
2018-11-07T05:35:44.118Z,5.33
2018-11-07T05:36:44.084Z,5.43
2018-11-07T05:37:44.044Z,5.62
2018-11-07T05:38:44.004Z,6.28
2018-11-07T05:39:43.967Z,6.67
2018-11-07T05:40:43.921Z,5.52
2018-11-07T05:41:43.886Z,5.62
2018-11-07T05:42:43.845Z,5.62
2018-11-07T05:43:43.804Z,6.10
2018-11-07T05:44:43.771Z,6.29
2018-11-07T05:45:43.730Z,6.38
2018-11-07T05:46:43.688Z,6.29
2018-11-07T05:47:43.648Z,6.38
2018-11-07T05:48:43.613Z,6.67
2018-11-07T05:49:43.572Z,6.67
2018-11-07T05:50:43.533Z,6.28
2018-11-07T05:51:43.497Z,6.57
2018-11-07T05:52:43.451Z,5.81
2018-11-07T05:53:43.413Z,6.67
2018-11-07T05:54:43.374Z,7.81
2018-11-07T05:55:43.333Z,7.62
2018-11-07T05:56:43.302Z,7.62
2018-11-07T05:57:43.264Z,7.43
2018-11-07T05:58:43.219Z,7.52
2018-11-07T05:59:43.183Z,6.85
2018-11-07T06:00:43.137Z,7.52
2018-11-07T06:01:43.100Z,7.43
2018-11-07T06:02:43.065Z,6.85
2018-11-07T06:03:43.025Z,7.04
2018-11-07T06:04:42.980Z,6.48
2018-11-07T06:05:42.943Z,6.00
2018-11-07T06:06:42.909Z,6.57
2018-11-07T06:07:42.865Z,6.19
2018-11-07T06:08:42.829Z,7.05
2018-11-07T06:09:42.790Z,7.43
2018-11-07T06:10:42.750Z,7.43
2018-11-07T06:11:42.715Z,7.81
2018-11-07T06:12:42.668Z,7.62
2018-11-07T06:13:42.632Z,7.62
2018-11-07T06:14:42.590Z,7.53
2018-11-07T06:15:42.551Z,7.90
2018-11-07T06:16:42.516Z,8.67
2018-11-07T06:17:42.476Z,8.57
2018-11-07T06:18:42.435Z,9.05
2018-11-07T06:19:42.393Z,8.95
2018-11-07T06:20:42.359Z,9.43
2018-11-07T06:21:42.318Z,9.24
2018-11-07T06:22:42.282Z,8.67
2018-11-07T06:23:42.243Z,9.33
2018-11-07T06:24:42.210Z,10.48
2018-11-07T06:25:42.159Z,11.52
2018-11-07T06:26:42.120Z,12.95
2018-11-07T06:27:42.087Z,13.43
2018-11-07T06:28:42.046Z,14.10
2018-11-07T06:29:42.007Z,14.19
2018-11-07T06:30:41.966Z,15.14
2018-11-07T06:31:41.929Z,15.43
2018-11-07T06:32:41.883Z,15.91
2018-11-07T06:33:41.850Z,16.00
2018-11-07T06:34:41.811Z,17.24
2018-11-07T06:35:41.772Z,18.19
2018-11-07T06:36:41.726Z,18.19
2018-11-07T06:37:41.689Z,18.86
2018-11-07T06:38:41.650Z,20.10
2018-11-07T06:39:41.612Z,19.62
2018-11-07T06:40:41.575Z,19.81
2018-11-07T06:41:41.534Z,21.44
2018-11-07T06:42:41.496Z,21.83
2018-11-07T06:43:41.458Z,21.92
2018-11-07T06:44:41.415Z,22.40
2018-11-07T06:45:41.428Z,22.11
2018-11-07T06:46:41.337Z,21.92
2018-11-07T06:47:41.298Z,21.92
2018-11-07T06:48:41.260Z,22.49
2018-11-07T06:49:41.229Z,22.68
2018-11-07T06:50:41.181Z,22.78
2018-11-07T06:51:41.142Z,22.78
2018-11-07T06:52:41.107Z,23.34
2018-11-07T06:53:41.065Z,23.73
2018-11-07T06:54:41.027Z,23.92
2018-11-07T06:55:41.020Z,24.40
2018-11-07T06:56:40.943Z,24.59
2018-11-07T06:57:40.907Z,24.40
2018-11-07T06:58:40.869Z,24.78
2018-11-07T06:59:40.832Z,25.64
2018-11-07T07:00:40.794Z,25.26
2018-11-07T07:01:40.755Z,25.35
2018-11-07T07:02:40.714Z,25.45
2018-11-07T07:03:40.678Z,24.49
2018-11-07T07:04:40.633Z,24.68
2018-11-07T07:05:40.596Z,24.68
2018-11-07T07:06:40.560Z,24.88
2018-11-07T07:07:40.521Z,24.97
2018-11-07T07:08:40.479Z,24.88
2018-11-07T07:09:40.441Z,25.73
2018-11-07T07:10:40.401Z,25.64
2018-11-07T07:11:40.361Z,25.73
2018-11-07T07:12:40.326Z,25.73
2018-11-07T07:13:40.286Z,26.59
2018-11-07T07:14:40.250Z,27.45
2018-11-07T07:15:40.210Z,26.50
2018-11-07T07:16:40.165Z,26.88
2018-11-07T07:17:40.154Z,28.50
2018-11-07T07:18:40.092Z,28.88
2018-11-07T07:19:40.049Z,29.45
2018-11-07T07:20:40.019Z,30.02
2018-11-07T07:21:39.976Z,31.55
2018-11-07T07:22:39.934Z,30.12
2018-11-07T07:23:39.894Z,30.31
2018-11-07T07:24:39.861Z,31.64
2018-11-07T07:25:39.886Z,30.88
2018-11-07T07:26:39.782Z,31.74
2018-11-07T07:27:39.745Z,32.40
2018-11-07T07:28:39.700Z,32.98
2018-11-07T07:29:39.668Z,33.93
2018-11-07T07:30:39.668Z,33.45
2018-11-07T07:31:39.584Z,34.03
2018-11-07T07:32:39.553Z,35.27
2018-11-07T07:33:39.575Z,35.27
2018-11-07T07:34:39.472Z,35.46
2018-11-07T07:35:39.436Z,35.84
2018-11-07T07:36:39.392Z,35.55
2018-11-07T07:37:39.354Z,36.62
2018-11-07T07:38:39.318Z,36.52
2018-11-07T07:39:39.281Z,36.05
2018-11-07T07:40:39.236Z,36.43
2018-11-07T07:41:39.198Z,38.15
2018-11-07T07:42:39.162Z,37.76
2018-11-07T07:43:39.120Z,39.86
2018-11-07T07:44:39.090Z,38.71
2018-11-07T07:45:39.065Z,39.67
2018-11-07T07:46:39.008Z,39.95
2018-11-07T07:47:38.972Z,39.39
2018-11-07T07:48:38.927Z,40.24
2018-11-07T07:49:38.893Z,40.24
2018-11-07T07:50:38.854Z,41.00
2018-11-07T07:51:38.872Z,42.24
2018-11-07T07:52:38.779Z,41.29
2018-11-07T07:53:38.746Z,41.77
2018-11-07T07:54:38.728Z,41.67
2018-11-07T07:55:38.662Z,42.63
2018-11-07T07:56:38.625Z,42.05
2018-11-07T07:57:38.585Z,42.44
2018-11-07T07:58:38.547Z,41.48
2018-11-07T07:59:38.511Z,43.49
2018-11-07T08:00:38.465Z,43.20
2018-11-07T08:01:38.431Z,44.63
2018-11-07T08:02:38.393Z,44.34
2018-11-07T08:03:38.352Z,44.82
2018-11-07T08:04:38.319Z,44.44
2018-11-07T08:05:38.281Z,45.87
2018-11-07T08:06:38.240Z,45.78
2018-11-07T08:07:38.204Z,45.99
2018-11-07T08:08:38.163Z,46.08
2018-11-07T08:09:38.127Z,46.75
2018-11-07T08:10:38.088Z,45.99
2018-11-07T08:11:38.052Z,47.80
2018-11-07T08:12:38.008Z,46.56
2018-11-07T08:13:38.057Z,47.80
2018-11-07T08:14:37.933Z,47.80
2018-11-07T08:15:37.894Z,46.47
2018-11-07T08:16:37.861Z,47.80
2018-11-07T08:17:37.822Z,51.33
2018-11-07T08:18:37.783Z,48.08
2018-11-07T08:19:37.747Z,49.13
2018-11-07T08:20:37.702Z,50.67
2018-11-07T08:21:37.667Z,49.80
2018-11-07T08:22:37.629Z,50.76
2018-11-07T08:23:37.590Z,49.13
2018-11-07T08:24:37.556Z,50.28
2018-11-07T08:25:37.517Z,50.38
2018-11-07T08:26:37.477Z,49.23
2018-11-07T08:27:37.437Z,50.18
2018-11-07T08:28:37.408Z,48.49
2018-11-07T08:29:37.367Z,51.07
2018-11-07T08:30:37.333Z,51.33
2018-11-07T08:31:37.296Z,50.49
2018-11-07T08:32:37.250Z,50.31
2018-11-07T08:33:37.213Z,52.31
2018-11-07T08:34:37.178Z,50.02
2018-11-07T08:35:37.136Z,52.95
2018-11-07T08:36:37.101Z,51.43
2018-11-07T08:37:37.062Z,50.40
2018-11-07T08:38:37.030Z,51.26
2018-11-07T08:39:36.990Z,51.83
2018-11-07T08:40:36.949Z,51.93
2018-11-07T08:41:36.910Z,51.54
2018-11-07T08:42:36.953Z,52.22
2018-11-07T08:43:36.840Z,52.79
2018-11-07T08:44:36.794Z,53.17
2018-11-07T08:45:36.759Z,53.17
2018-11-07T08:46:36.721Z,52.40
2018-11-07T08:47:36.681Z,52.59
2018-11-07T08:48:36.649Z,54.32
2018-11-07T08:49:36.611Z,53.65
2018-11-07T08:50:36.572Z,51.54
2018-11-07T08:51:36.536Z,55.65
2018-11-07T08:52:36.498Z,56.04
2018-11-07T08:53:36.463Z,56.04
2018-11-07T08:54:36.419Z,55.27
2018-11-07T08:55:36.383Z,54.79
2018-11-07T08:56:36.349Z,56.13
2018-11-07T08:57:36.309Z,55.55
2018-11-07T08:58:36.271Z,56.89
2018-11-07T08:59:36.231Z,56.80
2018-11-07T09:00:36.196Z,57.85
2018-11-07T10:20:09.296Z,76.86
2018-11-07T10:21:09.212Z,76.57
2018-11-07T10:22:09.167Z,75.95
2018-11-07T10:23:09.134Z,80.06
2018-11-07T10:24:09.091Z,78.34
2018-11-07T10:25:09.060Z,78.72
2018-11-07T10:26:09.011Z,78.05
2018-11-07T10:27:09.164Z,79.39
2018-11-07T10:28:09.428Z,78.91
2018-11-07T10:29:09.153Z,78.14
2018-11-07T10:30:17.769Z,78.14
2018-11-07T10:32:13.266Z,79.39
2018-11-07T10:33:13.208Z,79.29
2018-11-07T10:34:13.167Z,79.87
2018-11-07T10:35:13.122Z,78.53
2018-11-07T10:36:13.083Z,79.49
2018-11-07T10:37:13.049Z,79.58
2018-11-07T10:38:13.071Z,79.96
2018-11-07T10:39:12.988Z,80.25
2018-11-07T10:40:12.941Z,78.91
2018-11-07T10:41:12.901Z,78.72
2018-11-07T10:42:12.862Z,79.29
2018-11-07T10:43:12.823Z,78.72
2018-11-07T10:44:12.796Z,78.39
2018-11-07T10:45:12.763Z,81.45
2018-11-07T10:46:12.754Z,80.02
2018-11-07T10:47:12.674Z,79.16
2018-11-07T10:48:12.640Z,79.25
2018-11-07T10:49:12.603Z,79.93
2018-11-07T10:50:12.568Z,80.02
2018-11-07T10:51:12.533Z,79.06
2018-11-07T10:52:12.498Z,77.63
2018-11-07T10:53:12.459Z,79.35
2018-11-07T10:54:12.419Z,78.11
2018-11-07T10:55:12.380Z,80.79
2018-11-07T10:56:12.348Z,80.50
2018-11-07T10:57:12.312Z,78.68
2018-11-07T10:58:12.273Z,81.84
2018-11-07T10:59:12.239Z,79.83
2018-11-07T11:00:12.196Z,80.79
2018-11-07T11:01:12.161Z,79.35
2018-11-07T11:02:12.126Z,80.02
2018-11-07T11:03:12.095Z,81.26
2018-11-07T11:04:12.055Z,79.93
2018-11-07T11:05:12.105Z,77.63
2018-11-07T11:06:11.978Z,80.02
2018-11-07T11:07:11.939Z,78.78
2018-11-07T11:08:11.904Z,78.39
2018-11-07T11:09:11.870Z,78.68
2018-11-07T11:10:11.833Z,79.64
2018-11-07T11:11:11.817Z,79.83
2018-11-07T11:12:11.762Z,81.16
2018-11-07T11:13:11.724Z,79.58
2018-11-07T11:14:11.685Z,80.25
2018-11-07T11:15:11.646Z,83.40
2018-11-07T11:16:11.616Z,81.88
2018-11-07T11:17:11.599Z,81.88
2018-11-07T11:18:11.542Z,80.63
2018-11-07T11:19:11.499Z,81.30
2018-11-07T11:20:11.464Z,82.17
2018-11-07T11:21:11.429Z,80.63
2018-11-07T11:22:11.394Z,83.12
2018-11-07T11:23:11.359Z,83.12
2018-11-07T11:24:11.324Z,82.26
2018-11-07T11:25:11.285Z,82.54
2018-11-07T11:26:11.245Z,83.12
2018-11-07T11:27:11.271Z,83.03
2018-11-07T11:28:11.173Z,83.03
2018-11-07T11:29:11.137Z,83.22
2018-11-07T11:30:11.101Z,81.40
2018-11-07T11:31:11.067Z,83.60
2018-11-07T11:32:11.026Z,79.68
2018-11-07T11:33:10.991Z,81.78
2018-11-07T11:34:11.135Z,81.97
2018-11-07T11:35:11.107Z,81.78
2018-11-07T11:36:10.885Z,82.17
2018-11-07T11:37:10.848Z,81.78
2018-11-07T11:38:10.816Z,81.21
2018-11-07T11:39:10.768Z,82.74
2018-11-07T11:40:10.735Z,81.11
2018-11-07T11:41:10.802Z,81.30
2018-11-07T11:42:10.664Z,81.97
2018-11-07T11:43:10.633Z,83.12
2018-11-07T11:44:10.594Z,83.12
2018-11-07T11:45:10.555Z,82.45
2018-11-07T11:46:10.517Z,82.64
2018-11-07T11:47:10.479Z,83.69
2018-11-07T11:48:10.448Z,82.83
2018-11-07T11:49:10.447Z,81.97
2018-11-07T11:50:10.373Z,82.45
2018-11-07T11:51:10.381Z,83.40
2018-11-07T11:52:10.297Z,82.54
2018-11-07T11:53:10.266Z,83.40
2018-11-07T11:54:10.231Z,81.40
2018-11-07T11:55:10.195Z,83.12
2018-11-07T11:56:10.159Z,82.64
2018-11-07T11:57:10.119Z,83.12
2018-11-07T11:58:10.085Z,82.54
2018-11-07T11:59:10.186Z,83.22
2018-11-07T12:00:10.336Z,82.07
2018-11-07T12:01:09.976Z,83.60
2018-11-07T12:02:09.978Z,82.45
2018-11-07T12:03:09.902Z,80.16
2018-11-07T12:04:09.862Z,83.79
2018-11-07T12:05:09.827Z,82.54
2018-11-07T12:06:09.792Z,83.12
2018-11-07T12:07:09.758Z,82.45
2018-11-07T12:08:09.743Z,82.93
2018-11-07T12:09:09.686Z,82.35
2018-11-07T12:10:09.644Z,83.12
2018-11-07T12:11:09.610Z,82.74
2018-11-07T12:12:09.581Z,81.49
2018-11-07T12:13:09.600Z,83.31
2018-11-07T12:14:09.501Z,83.98
2018-11-07T12:15:09.535Z,81.88
2018-11-07T12:16:09.431Z,83.03
2018-11-07T12:17:09.396Z,82.07
2018-11-07T12:18:09.355Z,84.27
2018-11-07T12:19:09.322Z,83.22
2018-11-07T12:20:09.285Z,83.22
2018-11-07T12:21:09.262Z,83.89
2018-11-07T12:22:09.210Z,82.93
2018-11-07T12:23:09.183Z,83.03
2018-11-07T12:24:09.133Z,83.69
2018-11-07T12:25:09.100Z,83.50
2018-11-07T12:26:09.067Z,83.31
2018-11-07T12:27:09.030Z,83.50
2018-11-07T12:28:08.994Z,82.07
2018-11-07T12:29:08.957Z,83.98
2018-11-07T12:30:08.918Z,83.40
2018-11-07T12:31:08.880Z,81.97
2018-11-07T12:32:08.844Z,83.60
2018-11-07T12:33:08.807Z,81.88
2018-11-07T12:34:08.774Z,83.03
2018-11-07T12:35:08.739Z,83.60
2018-11-07T12:36:08.739Z,83.60
2018-11-07T12:37:08.664Z,83.79
2018-11-07T12:38:08.629Z,83.60
2018-11-07T12:39:08.595Z,83.40
2018-11-07T12:40:08.563Z,82.83
2018-11-07T12:41:08.520Z,82.93
2018-11-07T12:42:08.487Z,82.93
2018-11-07T12:43:08.443Z,82.26
2018-11-07T12:44:08.410Z,83.60
2018-11-07T12:45:08.376Z,83.98
2018-11-07T12:46:08.338Z,83.12
2018-11-07T12:47:08.305Z,82.83
2018-11-07T12:48:08.278Z,82.45
2018-11-07T12:49:08.230Z,82.54
2018-11-07T12:50:08.389Z,82.93
2018-11-07T12:51:08.156Z,83.12
2018-11-07T12:52:08.123Z,83.22
2018-11-07T12:53:08.084Z,82.54
2018-11-07T12:54:08.045Z,83.69
2018-11-07T12:55:08.009Z,81.97
2018-11-07T12:56:07.970Z,83.03
2018-11-07T12:57:07.956Z,83.69
2018-11-07T12:58:08.038Z,82.93
2018-11-07T12:59:07.874Z,82.17
2018-11-07T13:00:07.832Z,80.92
2018-11-07T13:01:07.795Z,83.22
2018-11-07T13:02:07.759Z,83.79
2018-11-07T13:03:07.737Z,83.89
2018-11-07T13:04:07.684Z,82.93
2018-11-07T13:05:07.647Z,83.79
2018-11-07T13:06:07.612Z,82.64
2018-11-07T13:07:07.579Z,81.97
2018-11-07T13:08:07.536Z,83.79
2018-11-07T13:09:07.506Z,83.60
2018-11-07T13:10:07.471Z,83.89
2018-11-07T13:11:07.478Z,83.40
2018-11-07T13:12:07.397Z,83.79
2018-11-07T13:13:07.358Z,83.69
2018-11-07T13:14:07.319Z,83.40
2018-11-07T13:15:07.286Z,83.79
2018-11-07T13:16:07.249Z,83.79
2018-11-07T13:17:07.213Z,82.93
2018-11-07T13:18:07.179Z,80.16
2018-11-07T13:19:07.143Z,83.03
2018-11-07T13:20:07.107Z,83.22
2018-11-07T13:21:07.068Z,81.97
2018-11-07T13:22:07.039Z,83.60
2018-11-07T13:23:06.992Z,83.60
2018-11-07T13:24:06.965Z,83.31
2018-11-07T13:25:06.924Z,82.83
2018-11-07T13:26:06.885Z,83.03
2018-11-07T13:27:06.849Z,83.22
2018-11-07T13:28:06.823Z,82.83
2018-11-07T13:29:06.777Z,82.74
2018-11-07T13:30:06.745Z,83.79
2018-11-07T13:31:06.707Z,81.30
2018-11-07T13:32:06.666Z,82.17
2018-11-07T13:33:06.631Z,83.12
2018-11-07T13:34:06.599Z,83.79
2018-11-07T13:35:06.586Z,83.31
2018-11-07T13:36:06.528Z,83.50
2018-11-07T13:37:06.633Z,83.31
2018-11-07T13:38:06.638Z,83.79
2018-11-07T13:39:06.804Z,83.22
2018-11-07T13:40:06.381Z,84.08
2018-11-07T13:41:06.408Z,83.89
2018-11-07T13:42:06.305Z,83.31
2018-11-07T13:43:06.265Z,83.98
2018-11-07T13:44:06.230Z,84.75
2018-11-07T13:45:06.196Z,83.89
2018-11-07T13:46:06.199Z,83.50
2018-11-07T13:47:06.127Z,83.69
2018-11-07T13:48:06.090Z,83.40
2018-11-07T13:49:06.067Z,83.69
2018-11-07T13:50:06.013Z,83.40
2018-11-07T13:51:05.979Z,83.40
2018-11-07T13:52:05.942Z,83.60
2018-11-07T13:53:05.973Z,83.50
2018-11-07T13:54:05.872Z,83.60
2018-11-07T13:55:05.837Z,83.89
2018-11-07T13:56:05.793Z,83.12
2018-11-07T13:57:05.760Z,83.40
2018-11-07T13:58:05.725Z,82.54
2018-11-07T13:59:05.713Z,83.50
2018-11-07T14:00:05.656Z,83.22
2018-11-07T14:01:05.617Z,83.03
2018-11-07T14:02:05.578Z,82.74
2018-11-07T14:03:05.540Z,81.21
2018-11-07T14:04:05.504Z,82.35
2018-11-07T14:05:05.478Z,81.40
2018-11-07T14:06:05.519Z,82.07
2018-11-07T14:07:05.401Z,81.97
2018-11-07T14:08:05.364Z,81.78
2018-11-07T14:09:05.328Z,81.11
2018-11-07T14:10:05.287Z,82.17
2018-11-07T14:11:05.249Z,81.78
2018-11-07T14:12:05.219Z,80.92
2018-11-07T14:13:05.187Z,81.30
2018-11-07T14:14:05.144Z,80.92
2018-11-07T14:15:05.104Z,80.21
2018-11-07T14:16:05.158Z,80.69
2018-11-07T14:17:05.035Z,79.87
2018-11-07T14:18:05.016Z,81.26
2018-11-07T14:19:04.966Z,80.16
2018-11-07T14:20:04.932Z,81.02
2018-11-07T14:21:04.892Z,81.21
2018-11-07T14:22:04.852Z,80.73
2018-11-07T14:23:04.815Z,81.30
2018-11-07T14:24:04.778Z,80.25
2018-11-07T14:25:04.744Z,79.87
2018-11-07T14:26:04.768Z,80.73
2018-11-07T14:27:04.678Z,80.44
2018-11-07T14:28:04.827Z,80.63
2018-11-07T14:29:04.600Z,80.88
2018-11-07T14:30:04.563Z,79.93
2018-11-07T14:31:04.530Z,80.16
2018-11-07T14:32:04.496Z,80.11
2018-11-07T14:33:04.456Z,80.82
2018-11-07T14:34:04.476Z,80.11
2018-11-07T14:35:04.379Z,80.06
2018-11-07T14:36:04.342Z,80.06
2018-11-07T14:37:04.308Z,80.16
2018-11-07T14:38:04.273Z,79.77
2018-11-07T14:39:04.282Z,80.11
2018-11-07T14:40:04.203Z,80.02
2018-11-07T14:41:04.164Z,80.25
2018-11-07T14:42:04.131Z,79.20
2018-11-07T14:43:04.088Z,80.63
2018-11-07T14:44:04.058Z,80.63
2018-11-07T14:45:04.021Z,80.25
2018-11-07T14:46:04.012Z,78.24
2018-11-07T14:47:04.039Z,78.81
2018-11-07T14:48:03.907Z,79.29
2018-11-07T14:49:03.872Z,79.96
2018-11-07T14:50:03.841Z,79.44
2018-11-07T14:51:03.804Z,79.73
2018-11-07T14:52:03.768Z,78.39
2018-11-07T14:53:03.729Z,78.30
2018-11-07T14:54:03.691Z,79.16
2018-11-07T14:55:03.652Z,79.83
2018-11-07T14:56:03.617Z,79.93
2018-11-07T14:57:03.583Z,80.79
2018-11-07T14:58:03.548Z,79.93
2018-11-07T14:59:03.518Z,78.97
2018-11-07T15:00:03.471Z,78.30
2018-11-07T15:01:03.437Z,79.83
2018-11-07T15:02:03.403Z,78.49
2018-11-07T15:03:03.368Z,78.68
2018-11-07T15:04:03.332Z,78.49
2018-11-07T15:05:03.303Z,78.11
2018-11-07T15:06:03.294Z,78.78
2018-11-07T15:07:03.217Z,78.01
2018-11-07T15:08:03.187Z,78.20
2018-11-07T15:09:03.147Z,77.72
2018-11-07T15:10:03.113Z,78.11
2018-11-07T15:11:03.085Z,78.49
2018-11-07T15:12:03.042Z,77.34
2018-11-07T15:13:03.003Z,78.01
2018-11-07T15:14:02.964Z,77.15
2018-11-07T15:15:02.930Z,77.34
2018-11-07T15:16:02.896Z,76.96
2018-11-07T15:17:02.876Z,76.10
2018-11-07T15:18:02.820Z,77.34
2018-11-07T15:19:02.782Z,77.72
2018-11-07T15:20:02.745Z,77.72
2018-11-07T15:21:02.714Z,76.57
2018-11-07T15:22:02.675Z,75.24
2018-11-07T15:23:02.641Z,76.86
2018-11-07T15:24:02.605Z,77.06
2018-11-07T15:25:02.649Z,76.96
2018-11-07T15:26:02.526Z,77.25
2018-11-07T15:27:02.491Z,76.77
2018-11-07T15:28:02.453Z,75.34
2018-11-07T15:29:02.422Z,75.81
2018-11-07T15:30:02.383Z,76.67
2018-11-07T15:31:02.349Z,75.81
2018-11-07T15:32:02.306Z,75.05
2018-11-07T15:33:02.272Z,74.57
2018-11-07T15:34:02.237Z,75.34
2018-11-07T15:35:02.216Z,75.05
2018-11-07T15:36:02.239Z,74.57
2018-11-07T15:37:02.129Z,75.05
2018-11-07T15:38:02.091Z,74.38
2018-11-07T15:39:02.054Z,75.24
2018-11-07T15:40:02.016Z,73.99
2018-11-07T15:41:01.983Z,75.34
2018-11-07T15:42:01.945Z,75.24
2018-11-07T15:43:01.911Z,75.05
2018-11-07T15:44:01.875Z,73.14
2018-11-07T15:45:01.845Z,74.09
2018-11-07T15:46:01.796Z,73.80
2018-11-07T15:47:01.760Z,73.80
2018-11-07T15:48:01.736Z,73.71
2018-11-07T15:49:01.689Z,74.19
2018-11-07T15:50:01.651Z,73.80
2018-11-07T15:51:01.613Z,73.61
2018-11-07T15:52:01.655Z,72.18
2018-11-07T16:04:01.592Z,69.18
2018-11-07T16:05:01.515Z,69.47
2018-11-07T16:06:01.500Z,69.95
2018-11-07T16:07:01.424Z,68.80
2018-11-07T16:08:01.389Z,69.56
2018-11-07T16:09:01.352Z,68.99
2018-11-07T16:10:09.038Z,66.60
2018-11-07T16:11:01.266Z,67.55
2018-11-07T16:12:01.238Z,67.94
2018-11-07T16:13:01.259Z,67.55
2018-11-07T16:14:01.154Z,67.46
2018-11-07T16:15:01.114Z,67.08
2018-11-07T16:16:01.072Z,66.60
2018-11-07T16:17:01.033Z,65.74
2018-11-07T16:18:00.997Z,65.45
2018-11-07T16:19:00.961Z,62.11
2018-11-07T16:20:00.926Z,64.40
2018-11-07T16:21:00.888Z,64.88
2018-11-07T16:22:00.856Z,64.31
2018-11-07T16:23:00.819Z,62.59
2018-11-07T16:24:00.787Z,61.82
2018-11-07T16:25:00.734Z,60.87
2018-11-07T16:26:00.811Z,60.87
2018-11-07T16:27:00.662Z,57.81
2018-11-07T16:28:00.627Z,56.09
2018-11-07T16:29:00.583Z,54.37
2018-11-07T16:30:00.553Z,53.22
2018-11-07T16:31:00.513Z,50.84
2018-11-07T16:32:00.478Z,51.41
2018-11-07T16:33:00.479Z,50.45
2018-11-07T16:34:00.401Z,49.30
2018-11-07T16:35:00.362Z,49.02
2018-11-07T16:36:00.324Z,47.94
2018-11-07T16:37:00.291Z,47.56
2018-11-07T16:38:00.327Z,45.37
2018-11-07T16:39:00.218Z,46.13
2018-11-07T16:40:00.180Z,45.84
2018-11-07T16:41:00.155Z,45.27
2018-11-07T16:42:00.151Z,45.46
2018-11-07T16:43:00.064Z,44.51
2018-11-07T16:44:00.026Z,45.08
2018-11-07T16:44:59.994Z,44.89
2018-11-07T16:45:59.955Z,44.41
2018-11-07T16:46:59.953Z,44.51
2018-11-07T16:47:59.876Z,43.26
2018-11-07T16:48:59.839Z,44.02
2018-11-07T16:49:59.805Z,43.74
2018-11-07T16:50:59.769Z,43.36
2018-11-07T16:51:59.734Z,43.07
2018-11-07T16:52:59.695Z,42.79
2018-11-07T16:53:59.659Z,42.02
2018-11-07T16:54:59.618Z,41.45
2018-11-07T16:55:59.579Z,40.59
2018-11-07T16:56:59.541Z,40.30
2018-11-07T16:57:59.510Z,39.83
2018-11-07T16:58:59.508Z,38.58
2018-11-07T16:59:59.437Z,38.10
2018-11-07T17:00:59.394Z,36.68
2018-11-07T17:01:59.358Z,36.19
2018-11-07T17:02:59.323Z,36.10
2018-11-07T17:03:59.292Z,35.43
2018-11-07T17:04:59.263Z,35.43
2018-11-07T17:05:59.211Z,34.86
2018-11-07T17:06:59.176Z,34.19
2018-11-07T17:07:59.138Z,34.09
2018-11-07T17:08:59.096Z,33.52
2018-11-07T17:09:59.063Z,33.71
2018-11-07T17:10:59.029Z,33.62
2018-11-07T17:11:58.992Z,32.95
2018-11-07T17:12:58.955Z,33.14
2018-11-07T17:13:58.915Z,32.57
2018-11-07T17:14:58.876Z,32.95
2018-11-07T17:15:58.849Z,32.76
2018-11-07T17:16:58.805Z,31.80
2018-11-07T17:17:58.766Z,31.51
2018-11-07T17:18:58.728Z,30.94
2018-11-07T17:19:58.688Z,30.56
2018-11-07T17:20:58.651Z,31.04
2018-11-07T17:21:58.615Z,30.75
2018-11-07T17:22:58.581Z,30.85
2018-11-07T17:23:58.610Z,29.22
2018-11-07T17:24:58.509Z,28.94
2018-11-07T17:25:58.472Z,28.17
2018-11-07T17:26:58.440Z,28.08
2018-11-07T17:27:58.392Z,27.50
2018-11-07T17:28:58.358Z,27.12
2018-11-07T17:29:58.318Z,26.54
2018-11-07T17:30:58.283Z,26.07
2018-11-07T17:31:58.338Z,25.68
2018-11-07T17:32:58.204Z,25.12
2018-11-07T17:33:58.170Z,24.26
2018-11-07T17:34:58.134Z,24.15
2018-11-07T17:35:58.103Z,23.78
2018-11-07T17:36:58.064Z,23.59
2018-11-07T17:37:58.024Z,23.19
2018-11-07T17:38:57.984Z,23.48
2018-11-07T17:39:57.945Z,21.09
2018-11-07T17:40:57.910Z,21.77
2018-11-07T17:41:57.874Z,22.72
2018-11-07T17:42:57.840Z,22.24
2018-11-07T17:43:57.803Z,22.05
2018-11-07T17:44:57.769Z,22.43
2018-11-07T17:45:57.739Z,22.43
2018-11-07T17:46:57.686Z,22.05
2018-11-07T17:47:57.683Z,21.95
2018-11-07T17:48:57.615Z,21.28
2018-11-07T17:49:57.577Z,21.86
2018-11-07T17:50:57.540Z,22.33
2018-11-07T17:51:57.500Z,22.62
2018-11-07T17:52:57.460Z,22.53
2018-11-07T17:53:57.428Z,22.14
2018-11-07T17:54:57.391Z,21.77
2018-11-07T17:55:57.355Z,23.00
2018-11-07T17:56:57.318Z,22.81
2018-11-07T17:57:57.320Z,21.95
2018-11-07T17:58:57.239Z,22.43
2018-11-07T17:59:57.206Z,22.05
2018-11-07T18:00:57.163Z,21.95
2018-11-07T18:01:57.129Z,20.72
2018-11-07T18:02:57.094Z,21.77
2018-11-07T18:03:57.124Z,21.77
2018-11-07T18:04:57.014Z,22.05
2018-11-07T18:05:56.982Z,22.05
2018-11-07T18:06:56.948Z,21.57
2018-11-07T18:07:56.910Z,20.90
2018-11-07T18:08:56.871Z,21.48
2018-11-07T18:09:56.919Z,21.48
2018-11-07T18:10:56.793Z,21.48
2018-11-07T18:11:56.754Z,21.09
2018-11-07T18:12:56.718Z,20.90
2018-11-07T18:13:56.683Z,20.62
2018-11-07T18:14:56.692Z,20.43
2018-11-07T18:15:56.617Z,20.04
2018-11-07T18:16:56.576Z,19.76
2018-11-07T18:17:56.534Z,18.52
2018-11-07T18:18:56.568Z,18.71
2018-11-07T18:19:56.460Z,18.52
2018-11-07T18:20:56.424Z,17.85
2018-11-07T18:21:56.384Z,17.08
2018-11-07T18:22:56.349Z,17.08
2018-11-07T18:23:56.308Z,17.27
2018-11-07T18:24:56.271Z,16.99
2018-11-07T18:25:56.234Z,16.61
2018-11-07T18:26:56.200Z,15.94
2018-11-07T18:27:56.164Z,15.84
2018-11-07T18:28:56.127Z,15.46
2018-11-07T18:29:56.087Z,15.37
2018-11-07T18:30:56.046Z,15.08
2018-11-07T18:31:56.008Z,14.32
2018-11-07T18:32:55.970Z,14.70
2018-11-07T18:33:55.934Z,14.03
2018-11-07T18:34:55.909Z,13.75